Home > Products > Valid Products > TAF

000
FTUS44 KHUN 261732
TAFHSV
TAF
KHSV 261732Z 2618/2718 32012KT P6SM OVC025
      TEMPO 2620/2623 SCT030
     FM262300 31010KT P6SM BKN025
     FM270300 VRB03KT P6SM OVC035
     FM271200 VRB03KT P6SM OVC015=



000
FTUS44 KHUN 261732
TAFHSV
TAF
KHSV 261732Z 2618/2718 32012KT P6SM OVC025
      TEMPO 2620/2623 SCT030
     FM262300 31010KT P6SM BKN025
     FM270300 VRB03KT P6SM OVC035
     FM271200 VRB03KT P6SM OVC015=



000
FTUS44 KHUN 261732
TAFMSL
TAF
KMSL 261732Z 2618/2718 32012KT P6SM BKN025
     FM262000 30010KT P6SM SCT030
     FM262300 29007KT P6SM BKN025
     FM270200 VRB03KT P6SM OVC050
     FM271100 VRB04KT P6SM BKN015=



000
FTUS44 KHUN 261732
TAFMSL
TAF
KMSL 261732Z 2618/2718 32012KT P6SM BKN025
     FM262000 30010KT P6SM SCT030
     FM262300 29007KT P6SM BKN025
     FM270200 VRB03KT P6SM OVC050
     FM271100 VRB04KT P6SM BKN015=



000
FTUS44 KHUN 261120
TAFMSL
TAF
KMSL 261120Z 2612/2712 32012G22KT P6SM OVC010
      TEMPO 2612/2613 OVC008
     FM261900 30010KT P6SM BKN035
     FM270000 VRB03KT P6SM BKN050=



000
FTUS44 KHUN 261120
TAFHSV
TAF
KHSV 261120Z 2612/2712 32012G25KT P6SM OVC010
      TEMPO 2612/2613 OVC008
     FM262000 31010KT P6SM BKN035
     FM270000 VRB03KT P6SM BKN050=



000
FTUS44 KHUN 261120
TAFMSL
TAF
KMSL 261120Z 2612/2712 32012G22KT P6SM OVC010
      TEMPO 2612/2613 OVC008
     FM261900 30010KT P6SM BKN035
     FM270000 VRB03KT P6SM BKN050=



000
FTUS44 KHUN 261120
TAFHSV
TAF
KHSV 261120Z 2612/2712 32012G25KT P6SM OVC010
      TEMPO 2612/2613 OVC008
     FM262000 31010KT P6SM BKN035
     FM270000 VRB03KT P6SM BKN050=



000
FTUS44 KHUN 260859 AAA
TAFMSL
TAF AMD
KMSL 260859Z 2609/2706 31015G20KT 6SM BR OVC015
      TEMPO 2609/2612 OVC008
     FM261200 32015G25KT 6SM BR OVC025
     FM261900 32010KT P6SM BKN040
     FM270000 VRB03KT P6SM BKN050=



000
FTUS44 KHUN 260859 AAA
TAFMSL
TAF AMD
KMSL 260859Z 2609/2706 31015G20KT 6SM BR OVC015
      TEMPO 2609/2612 OVC008
     FM261200 32015G25KT 6SM BR OVC025
     FM261900 32010KT P6SM BKN040
     FM270000 VRB03KT P6SM BKN050=



000
FTUS44 KHUN 260520
TAFHSV
TAF
KHSV 260520Z 2606/2706 28010KT P6SM SCT015 BKN025
     FM261000 32010KT 5SM -RASN OVC015
     FM261200 32010G20KT 5SM -SN BR OVC020
     FM261500 32015G25KT P6SM OVC030
     FM262000 32010KT P6SM BKN040
     FM270000 VRB03KT P6SM BKN050=



000
FTUS44 KHUN 260520
TAFHSV
TAF
KHSV 260520Z 2606/2706 28010KT P6SM SCT015 BKN025
     FM261000 32010KT 5SM -RASN OVC015
     FM261200 32010G20KT 5SM -SN BR OVC020
     FM261500 32015G25KT P6SM OVC030
     FM262000 32010KT P6SM BKN040
     FM270000 VRB03KT P6SM BKN050=



000
FTUS44 KHUN 260520
TAFMSL
TAF
KMSL 260520Z 2606/2706 28010KT P6SM SCT015 BKN025
     FM260900 32010KT 5SM -RASN BR OVC015
     FM261100 32015G25KT 5SM -SN BR OVC020
     FM261400 32010G20KT P6SM OVC030
     FM261900 32010KT P6SM BKN040
     FM270000 VRB03KT P6SM BKN050=



000
FTUS44 KHUN 260520
TAFMSL
TAF
KMSL 260520Z 2606/2706 28010KT P6SM SCT015 BKN025
     FM260900 32010KT 5SM -RASN BR OVC015
     FM261100 32015G25KT 5SM -SN BR OVC020
     FM261400 32010G20KT P6SM OVC030
     FM261900 32010KT P6SM BKN040
     FM270000 VRB03KT P6SM BKN050=



000
FTUS44 KHUN 260330 AAA
TAFMSL
TAF AMD
KMSL 260330Z 2604/2624 28010KT P6SM VCSH SCT015 BKN030
     FM260900 32015KT 5SM -RASN BR OVC015
     FM261100 32015G25KT 5SM -SN BR OVC020
     FM261400 32010G25KT P6SM OVC030
     FM261900 32010G20KT P6SM BKN050=



000
FTUS44 KHUN 260330 AAA
TAFMSL
TAF AMD
KMSL 260330Z 2604/2624 28010KT P6SM VCSH SCT015 BKN030
     FM260900 32015KT 5SM -RASN BR OVC015
     FM261100 32015G25KT 5SM -SN BR OVC020
     FM261400 32010G25KT P6SM OVC030
     FM261900 32010G20KT P6SM BKN050=



000
FTUS44 KHUN 260328 AAA
TAFHSV
TAF AMD
KHSV 260328Z 2603/2624 28010KT P6SM VCSH SCT030 BKN050
     FM261000 32015KT 5SM -RASN OVC030
     FM261200 32015G25KT 5SM -SN BR OVC020
     FM261500 32015G25KT P6SM OVC030
     FM262000 32010G20KT P6SM BKN040=



000
FTUS44 KHUN 252322
TAFHSV
TAF
KHSV 252322Z 2600/2624 23010KT P6SM VCSH BKN050
     FM260200 27010KT 5SM -RA BR OVC040
     FM260600 29010KT 5SM -RA BR OVC030
     FM261000 32015KT 5SM -RASN OVC015
     FM261200 32015G25KT 5SM -SN BR OVC020
     FM261500 32015G25KT P6SM OVC030
     FM262000 32010G20KT P6SM BKN040=



000
FTUS44 KHUN 252322
TAFHSV
TAF
KHSV 252322Z 2600/2624 23010KT P6SM VCSH BKN050
     FM260200 27010KT 5SM -RA BR OVC040
     FM260600 29010KT 5SM -RA BR OVC030
     FM261000 32015KT 5SM -RASN OVC015
     FM261200 32015G25KT 5SM -SN BR OVC020
     FM261500 32015G25KT P6SM OVC030
     FM262000 32010G20KT P6SM BKN040=



000
FTUS44 KHUN 252322
TAFMSL
TAF
KMSL 252322Z 2600/2624 25010KT P6SM VCSH BKN050
     FM260100 27010KT 5SM -RA BR OVC040
     FM260500 29010KT 5SM -RA BR OVC030
     FM260900 32015KT 5SM -RASN BR OVC015
     FM261100 32015G25KT 5SM -SN BR OVC020
     FM261400 32010G25KT P6SM OVC030
     FM261900 32010G20KT P6SM BKN050=



000
FTUS44 KHUN 252322
TAFMSL
TAF
KMSL 252322Z 2600/2624 25010KT P6SM VCSH BKN050
     FM260100 27010KT 5SM -RA BR OVC040
     FM260500 29010KT 5SM -RA BR OVC030
     FM260900 32015KT 5SM -RASN BR OVC015
     FM261100 32015G25KT 5SM -SN BR OVC020
     FM261400 32010G25KT P6SM OVC030
     FM261900 32010G20KT P6SM BKN050=



000
FTUS44 KHUN 251730
TAFHSV
TAF
KHSV 251730Z 2518/2618 20005KT P6SM FEW250
     FM252000 20010G20KT P6SM BKN080
     FM260000 27010KT P6SM VCSH OVC050
     FM260300 29010KT 5SM -RA BR OVC025
     FM260700 31011KT 5SM -RA BR OVC009
     FM261000 32010KT 5SM -RASN OVC008
     FM261500 32010KT P6SM BKN017=



000
FTUS44 KHUN 251730
TAFMSL
TAF
KMSL 251730Z 2518/2618 23010G20KT P6SM BKN080
     FM252300 27010KT P6SM VCSH OVC050
     FM260100 29010KT 5SM -SHRA OVC020
     FM260600 31011KT 5SM -RA BR OVC009
     FM260900 32010KT 5SM -RASN BR OVC008
     FM261300 31012KT P6SM BKN015=



000
FTUS44 KHUN 251730
TAFMSL
TAF
KMSL 251730Z 2518/2618 23010G20KT P6SM BKN080
     FM252300 27010KT P6SM VCSH OVC050
     FM260100 29010KT 5SM -SHRA OVC020
     FM260600 31011KT 5SM -RA BR OVC009
     FM260900 32010KT 5SM -RASN BR OVC008
     FM261300 31012KT P6SM BKN015=



000
FTUS44 KHUN 251730
TAFHSV
TAF
KHSV 251730Z 2518/2618 20005KT P6SM FEW250
     FM252000 20010G20KT P6SM BKN080
     FM260000 27010KT P6SM VCSH OVC050
     FM260300 29010KT 5SM -RA BR OVC025
     FM260700 31011KT 5SM -RA BR OVC009
     FM261000 32010KT 5SM -RASN OVC008
     FM261500 32010KT P6SM BKN017=



000
FTUS44 KHUN 251120
TAFHSV
TAF
KHSV 251120Z 2512/2612 18005KT P6SM FEW250
     FM251900 20010G20KT P6SM BKN080
     FM260000 27010KT P6SM VCSH OVC050
     FM260300 29010KT 5SM -RA BR OVC025
     FM260700 31011KT 5SM -RA BR OVC009=



000
FTUS44 KHUN 251120
TAFHSV
TAF
KHSV 251120Z 2512/2612 18005KT P6SM FEW250
     FM251900 20010G20KT P6SM BKN080
     FM260000 27010KT P6SM VCSH OVC050
     FM260300 29010KT 5SM -RA BR OVC025
     FM260700 31011KT 5SM -RA BR OVC009=



000
FTUS44 KHUN 251120
TAFMSL
TAF
KMSL 251120Z 2512/2612 19005KT P6SM FEW250
     FM251800 23010G20KT P6SM BKN080
     FM252300 27010KT P6SM VCSH OVC050
     FM260200 29010KT 5SM -RA BR OVC025
     FM260600 31011KT 5SM -RA BR OVC009=



000
FTUS44 KHUN 251120
TAFMSL
TAF
KMSL 251120Z 2512/2612 19005KT P6SM FEW250
     FM251800 23010G20KT P6SM BKN080
     FM252300 27010KT P6SM VCSH OVC050
     FM260200 29010KT 5SM -RA BR OVC025
     FM260600 31011KT 5SM -RA BR OVC009=



000
FTUS44 KHUN 250520
TAFHSV
TAF
KHSV 250520Z 2506/2606 VRB03KT P6SM SKC
      TEMPO 2510/2514 5SM BR SCT250
     FM251400 18010KT P6SM BKN120
     FM251900 20010G20KT P6SM BKN080
     FM260000 27010KT P6SM VCSH OVC050
     FM260300 29010KT 5SM -RA BR OVC025=



000
FTUS44 KHUN 250520
TAFMSL
TAF
KMSL 250520Z 2506/2606 VRB03KT P6SM SKC
      TEMPO 2510/2514 4SM BR SCT250
     FM251400 20005KT P6SM BKN120
     FM251800 23010G20KT P6SM BKN080
     FM252300 27010KT P6SM VCSH OVC050
     FM260200 29010KT 5SM -RA BR OVC025=



000
FTUS44 KHUN 250520
TAFHSV
TAF
KHSV 250520Z 2506/2606 VRB03KT P6SM SKC
      TEMPO 2510/2514 5SM BR SCT250
     FM251400 18010KT P6SM BKN120
     FM251900 20010G20KT P6SM BKN080
     FM260000 27010KT P6SM VCSH OVC050
     FM260300 29010KT 5SM -RA BR OVC025=



000
FTUS44 KHUN 250520
TAFMSL
TAF
KMSL 250520Z 2506/2606 VRB03KT P6SM SKC
      TEMPO 2510/2514 4SM BR SCT250
     FM251400 20005KT P6SM BKN120
     FM251800 23010G20KT P6SM BKN080
     FM252300 27010KT P6SM VCSH OVC050
     FM260200 29010KT 5SM -RA BR OVC025=



000
FTUS44 KHUN 242331
TAFMSL
TAF
KMSL 242331Z 2500/2524 VRB03KT P6SM SKC
      TEMPO 2510/2514 4SM BR SKC
     FM251400 20005KT P6SM SCT250
     FM251800 23010G20KT P6SM BKN100=



000
FTUS44 KHUN 242331
TAFHSV
TAF
KHSV 242331Z 2500/2524 VRB03KT P6SM SKC
      TEMPO 2510/2514 5SM BR SKC
     FM251400 20005KT P6SM SCT250
     FM251900 23010G20KT P6SM BKN100=



000
FTUS44 KHUN 242331
TAFHSV
TAF
KHSV 242331Z 2500/2524 VRB03KT P6SM SKC
      TEMPO 2510/2514 5SM BR SKC
     FM251400 20005KT P6SM SCT250
     FM251900 23010G20KT P6SM BKN100=



000
FTUS44 KHUN 242331
TAFMSL
TAF
KMSL 242331Z 2500/2524 VRB03KT P6SM SKC
      TEMPO 2510/2514 4SM BR SKC
     FM251400 20005KT P6SM SCT250
     FM251800 23010G20KT P6SM BKN100=



000
FTUS44 KHUN 241731
TAFMSL
TAF
KMSL 241731Z 2418/2518 27007KT P6SM FEW018
     FM250000 21005KT P6SM SKC
     FM250500 20003KT 4SM BR SKC
     FM250800 00000KT 2SM BR SKC
     FM251200 20005KT 5SM BR SKC
     FM251400 20010G15KT P6SM SCT200=



000
FTUS44 KHUN 241731
TAFHSV
TAF
KHSV 241731Z 2418/2518 29010KT P6SM SCT018
     FM250000 22005KT P6SM SKC
     FM250900 21003KT 5SM BR SKC
     FM251400 20012G18KT P6SM SCT200=



000
FTUS44 KHUN 241731
TAFMSL
TAF
KMSL 241731Z 2418/2518 27007KT P6SM FEW018
     FM250000 21005KT P6SM SKC
     FM250500 20003KT 4SM BR SKC
     FM250800 00000KT 2SM BR SKC
     FM251200 20005KT 5SM BR SKC
     FM251400 20010G15KT P6SM SCT200=



000
FTUS44 KHUN 241731
TAFHSV
TAF
KHSV 241731Z 2418/2518 29010KT P6SM SCT018
     FM250000 22005KT P6SM SKC
     FM250900 21003KT 5SM BR SKC
     FM251400 20012G18KT P6SM SCT200=



000
FTUS44 KHUN 241424 AAA
TAFMSL
TAF AMD
KMSL 241424Z 2414/2512 31005KT 5SM BR OVC008
     FM241530 31008KT P6SM BKN008
     FM241700 26010KT P6SM SCT010
     FM250300 21005KT P6SM SKC=



000
FTUS44 KHUN 241424 AAA
TAFMSL
TAF AMD
KMSL 241424Z 2414/2512 31005KT 5SM BR OVC008
     FM241530 31008KT P6SM BKN008
     FM241700 26010KT P6SM SCT010
     FM250300 21005KT P6SM SKC=



000
FTUS44 KHUN 241120
TAFHSV
TAF
KHSV 241120Z 2412/2512 31009KT P6SM BKN010 OVC015
     FM241500 30010KT P6SM SCT015
     FM241800 27010KT P6SM SKC
     FM250400 19005KT P6SM SKC=



000
FTUS44 KHUN 241120
TAFHSV
TAF
KHSV 241120Z 2412/2512 31009KT P6SM BKN010 OVC015
     FM241500 30010KT P6SM SCT015
     FM241800 27010KT P6SM SKC
     FM250400 19005KT P6SM SKC=



000
FTUS44 KHUN 241120
TAFMSL
TAF
KMSL 241120Z 2412/2512 31010KT P6SM BKN010 OVC015
     FM241500 31010KT P6SM SCT015
     FM241700 26010KT P6SM SKC
     FM250300 21005KT P6SM SKC=



000
FTUS44 KHUN 241120
TAFMSL
TAF
KMSL 241120Z 2412/2512 31010KT P6SM BKN010 OVC015
     FM241500 31010KT P6SM SCT015
     FM241700 26010KT P6SM SKC
     FM250300 21005KT P6SM SKC=



000
FTUS44 KHUN 240538
TAFHSV
TAF
KHSV 240538Z 2406/2506 32008KT 5SM -DZ BR OVC006
     FM240630 33009KT 4SM -SNPL BR OVC005
     FM240900 31009KT 4SM -SN BR OVC007
     FM241100 31007KT P6SM SCT015 BKN100
     FM241800 27006KT P6SM SKC=



000
FTUS44 KHUN 240538
TAFMSL
TAF
KMSL 240538Z 2406/2506 34008KT 5SM -SNPL BR OVC007
     FM240800 32006KT 4SM -SN BR OVC005
     FM241000 31007KT P6SM SCT015 BKN100
     FM241700 26006KT P6SM SKC=



000
FTUS44 KHUN 240538
TAFHSV
TAF
KHSV 240538Z 2406/2506 32008KT 5SM -DZ BR OVC006
     FM240630 33009KT 4SM -SNPL BR OVC005
     FM240900 31009KT 4SM -SN BR OVC007
     FM241100 31007KT P6SM SCT015 BKN100
     FM241800 27006KT P6SM SKC=



000
FTUS44 KHUN 240538
TAFMSL
TAF
KMSL 240538Z 2406/2506 34008KT 5SM -SNPL BR OVC007
     FM240800 32006KT 4SM -SN BR OVC005
     FM241000 31007KT P6SM SCT015 BKN100
     FM241700 26006KT P6SM SKC=



000
FTUS44 KHUN 240426 AAA
TAFHSV
TAF AMD
KHSV 240426Z 2404/2424 32008KT P6SM OVC006
     FM240630 33009KT 4SM -SN BR OVC005
     FM241000 31009KT P6SM OVC010
     FM241300 31007KT P6SM BKN035 OVC090
     FM241800 27006KT P6SM SKC=



000
FTUS44 KHUN 240426 AAA
TAFHSV
TAF AMD
KHSV 240426Z 2404/2424 32008KT P6SM OVC006
     FM240630 33009KT 4SM -SN BR OVC005
     FM241000 31009KT P6SM OVC010
     FM241300 31007KT P6SM BKN035 OVC090
     FM241800 27006KT P6SM SKC=



000
FTUS44 KHUN 240333 AAA
TAFMSL
TAF AMD
KMSL 240333Z 2404/2424 03008KT 3SM -SNPL BR OVC007
     FM240800 32006KT 4SM -SN BR OVC005
     FM241200 31007KT P6SM BKN040
     FM241700 26006KT P6SM SKC=



000
FTUS44 KHUN 240333 AAA
TAFMSL
TAF AMD
KMSL 240333Z 2404/2424 03008KT 3SM -SNPL BR OVC007
     FM240800 32006KT 4SM -SN BR OVC005
     FM241200 31007KT P6SM BKN040
     FM241700 26006KT P6SM SKC=



000
FTUS44 KHUN 240333 AAA
TAFMSL
TAF AMD
KMSL 240333Z 2404/2424 03008KT 3SM -SNPL BR OVC007
     FM240800 32006KT 4SM -SN BR OVC005
     FM241200 31007KT P6SM BKN040
     FM241700 26006KT P6SM SKC=



000
FTUS44 KHUN 240333 AAA
TAFMSL
TAF AMD
KMSL 240333Z 2404/2424 03008KT 3SM -SNPL BR OVC007
     FM240800 32006KT 4SM -SN BR OVC005
     FM241200 31007KT P6SM BKN040
     FM241700 26006KT P6SM SKC=



000
FTUS44 KHUN 232333
TAFHSV
TAF
KHSV 232333Z 2400/2424 03008KT 3SM -DZ BR OVC007
      TEMPO 2400/2404 1SM BR OVC005
     FM240900 33009KT 4SM -SN BR OVC005
     FM241300 31007KT P6SM BKN040
     FM241800 27006KT P6SM SKC=



000
FTUS44 KHUN 232333
TAFMSL
TAF
KMSL 232333Z 2400/2424 03008KT 3SM -DZ BR OVC007
      TEMPO 2401/2404 1SM BR OVC005
     FM240800 32006KT 4SM -SN BR OVC005
     FM241200 31007KT P6SM BKN040
     FM241700 26006KT P6SM SKC=



000
FTUS44 KHUN 232333
TAFMSL
TAF
KMSL 232333Z 2400/2424 03008KT 3SM -DZ BR OVC007
      TEMPO 2401/2404 1SM BR OVC005
     FM240800 32006KT 4SM -SN BR OVC005
     FM241200 31007KT P6SM BKN040
     FM241700 26006KT P6SM SKC=



000
FTUS44 KHUN 232333
TAFHSV
TAF
KHSV 232333Z 2400/2424 03008KT 3SM -DZ BR OVC007
      TEMPO 2400/2404 1SM BR OVC005
     FM240900 33009KT 4SM -SN BR OVC005
     FM241300 31007KT P6SM BKN040
     FM241800 27006KT P6SM SKC=



    US Dept of Commerce
    National Oceanic and Atmospheric Administration
    National Weather Service
    1325 East West Highway
    Silver Spring, MD 20910
    Page Author: NWS Internet Services Team
Disclaimer
Information Quality
Credits
Glossary
Privacy Policy
Freedom of Information Act (FOIA)
About Us
Career Opportunities